Cookeville, TN (38501)

05:31 AM CDT die 02o September, anno 2015 (GMT -0500)
Forrest Cove Ln and Forrest Rd | | Change Station
CLOSE
Current Station
Personal Weather Stations
Location: Cookeville, TN
Elevation: 1079 ft
Nearby Weather Stations

Elev 1079 ft 36.20 °N, 85.52 °W | Updated 8 seconds ago

Serena
Serena
65.3 °F
Feels Like 65.3 °F
N
0.0
Ventus Variabilis Ventus from Magis Zephyrus quam Aquilo
Gusts 0.0 mph

Hodie
High -- | Low -- °F
--% Chance of Precip.
Yesterday
High -- | Low -- °F
Precip. -- in
6:14 AM 7:08 PM
Waning Gibbous, 81% visible
Pressio 30.13 in
Visibilitas 1.2 milia passuum
Clouds Serena
Frigus in quo Ros apparet 64 °F
Umor 99%
Rainfall 0.00 in
Snow Depth Not available.
UV 0 out of 12
Pollen 10.00 out of 12
Air Quality Not available.
Flu Activity Not available.
METAR KSRB 021015Z AUTO 00000KT 1 1/4SM CLR 18/18 A3013 RMK
Pressio 30.13 in
Visibilitas 1.2 milia passuum
Clouds Serena
Frigus in quo Ros apparet 64 °F
Umor 99%
Rainfall 0.00 in
Snow Depth Not available.
UV 0 out of 12
Pollen 10.00 out of 12
Air Quality Not available.
Flu Activity Not available.
METAR KSRB 021015Z AUTO 00000KT 1 1/4SM CLR 18/18 A3013 RMK

10-Day Weather Forecast

×

Almanac

Astronomy

Sep. 02, 2015 Rise Set
Actual Time
Civil Twilight
Nautical Twilight
Astronomical Twilight
Moon
Length Of Visible Light
Length of Day
Tomorrow will be .
, % of the Moon is Illuminated

Today's Extremes

State Highs State Lows

Community

WunderPhotos

Upload Photos

1,851,734 photos uploaded!

WunderBlogs® & News

Nearby

Air Quality

  Air Quality AQ Index Pollutant
Not available.

Snow Depth

Station Depth Elevation

Earthquake Activity

City Distance Mag. Time & Date
Minimum magnitude displayed is 2.5.

Coastal Water Temperatures

Locus Calor

Stations

Nearby Weather Stations

Station Location Temp Frigus Venti Frigus in quo Ros apparet Umor Ventus Precip. Elev Renovata Type